Time;durP1;ratioP1;P1;durP2;ratioP2;P2;SDS_P1;SDS_P2;PMS_P1;PMS_P2;Temp;Humidity;BMP_temperature;BMP_pressure;BME280_temperature;BME280_humidity;BME280_pressure;Samples;Min_cycle;Max_cycle;Signal;HPM_P1;HPM_P2
2024/01/25 00:01:47;;;;;;;38.05;13.32;;;6.40;99.90;;;;;;5070366;28;20061;-78
2024/01/25 00:04:13;;;;;;;36.30;12.27;;;6.30;99.90;;;;;;5070499;28;20088;-78
2024/01/25 00:06:39;;;;;;;39.65;13.43;;;6.30;99.90;;;;;;5069882;28;20025;-78
2024/01/25 00:09:04;;;;;;;34.25;11.70;;;6.30;99.90;;;;;;5071618;28;20367;-77
2024/01/25 00:11:31;;;;;;;33.15;13.55;;;6.30;99.90;;;;;;5069915;28;20039;-78
2024/01/25 00:13:58;;;;;;;31.75;11.48;;;6.30;99.90;;;;;;5070265;28;20059;-77
2024/01/25 00:16:24;;;;;;;28.92;11.32;;;6.30;99.90;;;;;;5071604;28;20021;-78
2024/01/25 00:18:50;;;;;;;23.05;11.98;;;6.30;99.90;;;;;;5070482;28;20047;-78
2024/01/25 00:21:16;;;;;;;38.97;11.80;;;6.40;99.90;;;;;;5070551;28;20040;-78
2024/01/25 00:23:41;;;;;;;33.42;12.05;;;6.30;99.90;;;;;;5070072;28;20456;-78
2024/01/25 00:26:07;;;;;;;36.55;13.38;;;6.30;99.90;;;;;;5070969;28;20043;-76
2024/01/25 00:28:33;;;;;;;31.25;12.32;;;6.20;99.90;;;;;;5070447;28;20089;-77
2024/01/25 00:30:59;;;;;;;29.30;11.30;;;6.20;99.90;;;;;;5070348;28;20423;-77
2024/01/25 00:33:25;;;;;;;24.85;10.63;;;6.30;99.90;;;;;;5052440;28;20031;-77
2024/01/25 00:35:51;;;;;;;30.42;11.38;;;6.30;99.90;;;;;;5069538;28;20059;-77
2024/01/25 00:38:17;;;;;;;33.72;11.27;;;6.20;99.90;;;;;;5070323;28;20052;-77
2024/01/25 00:40:43;;;;;;;33.58;10.80;;;6.20;99.90;;;;;;5069578;28;20075;-77
2024/01/25 00:43:09;;;;;;;31.55;11.07;;;6.20;99.90;;;;;;5070672;28;20063;-78
2024/01/25 00:45:35;;;;;;;33.92;10.45;;;6.20;99.90;;;;;;5052578;28;20035;-77
2024/01/25 00:48:01;;;;;;;22.83;9.35;;;6.10;99.90;;;;;;5069703;28;20454;-78
2024/01/25 00:50:27;;;;;;;21.33;8.10;;;6.20;99.90;;;;;;5070004;28;20036;-77
2024/01/25 00:52:53;;;;;;;19.65;8.45;;;6.20;99.90;;;;;;5051441;28;20048;-78
2024/01/25 00:55:19;;;;;;;28.55;8.70;;;6.10;99.90;;;;;;5070435;28;20511;-78
2024/01/25 00:57:45;;;;;;;28.42;8.98;;;6.20;99.90;;;;;;5069368;28;20117;-77
2024/01/25 01:00:12;;;;;;;30.23;8.60;;;6.20;99.90;;;;;;5051600;28;20120;-77
2024/01/25 01:02:44;;;;;;;31.75;10.95;;;6.20;99.90;;;;;;5051504;28;20462;-79
2024/01/25 01:05:10;;;;;;;33.55;13.70;;;6.20;99.90;;;;;;5070077;28;20058;-78
2024/01/25 01:07:37;;;;;;;29.15;11.98;;;6.20;99.90;;;;;;5070614;28;20044;-78
2024/01/25 01:10:03;;;;;;;28.63;10.63;;;6.30;99.90;;;;;;5070274;28;20039;-77
2024/01/25 01:12:30;;;;;;;31.13;10.52;;;6.40;99.90;;;;;;5070633;28;20029;-77
2024/01/25 01:14:56;;;;;;;32.72;12.07;;;6.40;99.90;;;;;;5070227;28;20024;-77
2024/01/25 01:17:22;;;;;;;36.45;11.00;;;6.50;99.90;;;;;;5051967;28;20115;-77
2024/01/25 01:19:47;;;;;;;29.48;9.48;;;6.50;99.90;;;;;;5052093;28;20483;-77
2024/01/25 01:22:13;;;;;;;26.38;6.95;;;6.60;99.90;;;;;;5070525;28;20036;-77
2024/01/25 01:24:39;;;;;;;28.88;5.85;;;6.60;99.90;;;;;;5056464;28;20047;-78
2024/01/25 01:27:04;;;;;;;18.67;5.00;;;6.80;99.90;;;;;;5074910;28;20439;-77
2024/01/25 01:29:30;;;;;;;21.85;4.90;;;7.00;99.90;;;;;;5075201;28;20064;-77
2024/01/25 01:31:56;;;;;;;24.17;6.30;;;6.90;99.90;;;;;;5074773;28;20029;-77
2024/01/25 01:34:21;;;;;;;22.13;5.75;;;7.10;99.90;;;;;;5074411;28;20039;-77
2024/01/25 01:36:47;;;;;;;23.75;6.68;;;7.10;99.90;;;;;;5074210;28;20016;-77
2024/01/25 01:39:13;;;;;;;30.13;6.18;;;7.20;99.90;;;;;;5056630;28;20025;-77
2024/01/25 01:41:39;;;;;;;20.60;5.25;;;7.30;99.90;;;;;;5074885;28;20444;-78
2024/01/25 01:44:04;;;;;;;25.75;5.80;;;7.40;99.90;;;;;;5074087;28;20025;-77
2024/01/25 01:46:36;;;;;;;26.77;6.00;;;7.50;99.90;;;;;;5074441;28;20358;-78
2024/01/25 01:49:03;;;;;;;23.13;5.13;;;7.60;99.90;;;;;;5073654;28;20173;-78
2024/01/25 01:51:30;;;;;;;17.38;4.57;;;7.60;99.90;;;;;;5074540;28;20056;-77
2024/01/25 01:53:56;;;;;;;16.98;5.13;;;7.70;99.90;;;;;;5055744;28;20025;-78
2024/01/25 01:56:27;;;;;;;20.40;4.95;;;7.70;99.90;;;;;;5074470;28;20028;-78
2024/01/25 01:58:54;;;;;;;24.55;6.18;;;7.70;99.90;;;;;;5073892;28;20086;-78
2024/01/25 02:01:21;;;;;;;14.18;4.90;;;7.80;99.90;;;;;;5056114;28;20049;-78
2024/01/25 02:03:46;;;;;;;23.80;5.38;;;7.80;99.90;;;;;;5072895;28;20087;-78
2024/01/25 02:06:12;;;;;;;35.08;6.93;;;7.80;99.90;;;;;;5073974;28;20059;-77
2024/01/25 02:08:38;;;;;;;24.98;6.07;;;7.80;99.90;;;;;;5073841;28;20052;-77
2024/01/25 02:11:04;;;;;;;45.00;7.00;;;7.80;99.90;;;;;;5073003;28;20035;-78
2024/01/25 02:13:30;;;;;;;24.35;6.47;;;7.70;99.90;;;;;;5073692;28;20101;-78
2024/01/25 02:15:56;;;;;;;23.77;6.68;;;7.80;99.90;;;;;;5073123;28;20056;-79
2024/01/25 02:18:22;;;;;;;27.80;6.78;;;7.80;99.90;;;;;;5073739;28;20430;-79
2024/01/25 02:20:48;;;;;;;33.70;7.40;;;7.80;99.90;;;;;;5056266;28;20037;-79
2024/01/25 02:23:14;;;;;;;29.08;6.80;;;7.80;99.90;;;;;;5073277;28;20048;-79
2024/01/25 02:25:39;;;;;;;25.30;6.35;;;7.70;99.90;;;;;;5055427;28;20024;-79
2024/01/25 02:28:05;;;;;;;30.02;6.45;;;7.80;99.90;;;;;;5073388;28;20115;-80
2024/01/25 02:30:31;;;;;;;28.45;6.82;;;7.70;99.90;;;;;;5054919;28;20120;-78
2024/01/25 02:32:57;;;;;;;34.45;7.28;;;7.70;99.90;;;;;;5072989;28;20175;-79
2024/01/25 02:35:23;;;;;;;17.23;4.78;;;7.80;99.90;;;;;;5071734;28;20056;-79
2024/01/25 02:37:50;;;;;;;32.53;6.13;;;7.70;99.90;;;;;;5085252;28;20031;-80
2024/01/25 02:40:16;;;;;;;28.75;6.38;;;7.80;99.90;;;;;;5079786;28;20036;-79
2024/01/25 02:42:42;;;;;;;29.98;6.55;;;7.80;99.90;;;;;;5074116;28;20442;-80
2024/01/25 02:45:08;;;;;;;39.88;6.95;;;7.90;99.90;;;;;;5076079;28;20028;-80
2024/01/25 02:47:34;;;;;;;34.08;7.35;;;7.90;99.90;;;;;;5072685;28;20112;-80
2024/01/25 02:49:59;;;;;;;39.13;6.97;;;7.90;99.90;;;;;;5071592;28;20100;-80
2024/01/25 02:52:25;;;;;;;23.05;6.38;;;7.90;99.90;;;;;;5072792;28;20035;-80
2024/01/25 02:54:51;;;;;;;24.23;5.55;;;7.90;99.90;;;;;;5073175;28;20021;-80
2024/01/25 02:57:17;;;;;;;31.85;6.72;;;7.80;99.90;;;;;;5072686;28;20462;-79
2024/01/25 02:59:43;;;;;;;23.23;4.78;;;7.80;99.90;;;;;;5071675;28;20028;-79
2024/01/25 03:02:08;;;;;;;18.98;4.28;;;7.90;99.90;;;;;;5071530;28;20024;-80
2024/01/25 03:04:34;;;;;;;17.48;3.50;;;8.10;99.90;;;;;;5072228;28;20029;-79
2024/01/25 03:07:00;;;;;;;12.88;3.22;;;8.30;99.90;;;;;;5053155;28;20442;-79
2024/01/25 03:09:25;;;;;;;14.05;3.22;;;8.30;99.90;;;;;;5071849;28;20064;-79
2024/01/25 03:11:51;;;;;;;10.82;3.05;;;8.40;99.90;;;;;;5053420;28;20055;-80
2024/01/25 03:14:17;;;;;;;10.05;2.55;;;8.50;99.90;;;;;;5071918;28;20108;-79
2024/01/25 03:16:43;;;;;;;7.65;1.80;;;8.70;99.90;;;;;;5071724;28;20115;-79
2024/01/25 03:19:10;;;;;;;6.55;1.88;;;8.60;99.90;;;;;;5071779;28;20036;-79
2024/01/25 03:21:36;;;;;;;3.42;1.45;;;8.60;99.90;;;;;;5053930;28;20036;-79
2024/01/25 03:24:02;;;;;;;3.60;1.05;;;8.70;99.90;;;;;;5071726;28;20103;-79
2024/01/25 03:26:28;;;;;;;6.75;1.05;;;8.70;99.90;;;;;;5071845;28;20495;-79
2024/01/25 03:28:54;;;;;;;3.78;1.10;;;8.80;99.90;;;;;;5071124;28;20122;-79
2024/01/25 03:31:19;;;;;;;3.33;1.15;;;9.00;99.90;;;;;;5071788;28;20466;-79
2024/01/25 03:33:45;;;;;;;1.55;0.77;;;9.00;99.90;;;;;;5071289;28;20111;-79
2024/01/25 03:36:15;;;;;;;6.65;1.05;;;9.10;99.90;;;;;;5072091;28;20036;-79
2024/01/25 03:38:41;;;;;;;3.72;0.80;;;9.00;99.90;;;;;;5071444;28;20021;-79
2024/01/25 03:41:07;;;;;;;4.25;1.02;;;9.10;99.90;;;;;;5070729;28;20041;-80
2024/01/25 03:43:32;;;;;;;2.33;0.80;;;9.00;99.90;;;;;;5052922;28;20420;-80
2024/01/25 03:45:59;;;;;;;1.77;0.60;;;9.20;99.90;;;;;;5070979;28;20041;-79
2024/01/25 03:48:24;;;;;;;1.77;0.30;;;9.30;99.90;;;;;;5071371;28;20048;-79
2024/01/25 03:50:50;;;;;;;1.42;0.40;;;9.20;99.90;;;;;;5071267;28;20431;-79
2024/01/25 03:53:16;;;;;;;1.65;0.32;;;9.20;99.90;;;;;;5070985;28;20041;-79
2024/01/25 03:55:41;;;;;;;0.20;0.10;;;9.20;99.90;;;;;;5053501;28;20075;-79
2024/01/25 03:58:08;;;;;;;0.75;0.10;;;9.30;99.90;;;;;;5052880;28;20123;-78
2024/01/25 04:00:33;;;;;;;0.40;0.20;;;9.40;99.90;;;;;;5053872;28;20033;-79
2024/01/25 04:02:59;;;;;;;0.40;0.10;;;9.40;99.90;;;;;;5073728;28;20400;-79
2024/01/25 04:05:26;;;;;;;0.43;0.20;;;9.50;99.90;;;;;;5071157;28;20021;-80
2024/01/25 04:07:52;;;;;;;0.10;0.10;;;9.50;99.90;;;;;;5052736;28;20028;-80
2024/01/25 04:10:18;;;;;;;0.10;0.10;;;9.40;99.90;;;;;;5071076;28;20538;-80
2024/01/25 04:12:43;;;;;;;0.10;0.00;;;9.50;99.90;;;;;;5071456;28;20104;-80
2024/01/25 04:15:09;;;;;;;0.70;0.00;;;9.50;99.90;;;;;;5071773;28;20024;-80
2024/01/25 04:17:35;;;;;;;0.10;0.10;;;9.60;99.90;;;;;;5072074;28;20437;-79
2024/01/25 04:20:01;;;;;;;0.00;0.00;;;9.60;99.90;;;;;;5053449;28;20464;-80
2024/01/25 04:22:27;;;;;;;0.00;0.00;;;9.60;99.90;;;;;;5072183;28;20083;-79
2024/01/25 04:24:52;;;;;;;0.50;0.00;;;9.70;99.90;;;;;;5070455;28;20027;-80
2024/01/25 04:27:18;;;;;;;0.08;0.08;;;9.70;99.90;;;;;;5070891;28;20020;-79
2024/01/25 04:29:44;;;;;;;0.30;0.03;;;9.80;99.90;;;;;;5071422;28;20082;-80
2024/01/25 04:32:10;;;;;;;0.10;0.00;;;9.70;99.90;;;;;;5070095;28;20117;-80
2024/01/25 04:34:36;;;;;;;0.00;0.00;;;9.80;99.90;;;;;;5070429;28;20033;-80
2024/01/25 04:37:02;;;;;;;0.10;0.10;;;9.70;99.90;;;;;;5070546;28;20053;-80
2024/01/25 04:39:27;;;;;;;0.00;0.00;;;9.70;99.90;;;;;;5052913;28;20428;-79
2024/01/25 04:41:53;;;;;;;0.00;0.00;;;9.70;99.90;;;;;;5062396;28;20124;-80
2024/01/25 04:44:19;;;;;;;0.00;0.00;;;9.80;99.90;;;;;;5050272;28;20021;-80
2024/01/25 04:46:45;;;;;;;0.00;0.00;;;9.70;99.90;;;;;;5033117;28;20436;-80
2024/01/25 04:49:11;;;;;;;1.25;0.03;;;9.70;99.90;;;;;;5050555;28;20931;-80
2024/01/25 04:51:36;;;;;;;0.00;0.00;;;9.80;99.90;;;;;;5050055;28;20108;-79
2024/01/25 04:54:02;;;;;;;0.00;0.00;;;9.70;99.90;;;;;;5049837;28;20229;-79
2024/01/25 04:56:28;;;;;;;0.03;0.03;;;9.80;99.90;;;;;;5050382;28;20053;-79
2024/01/25 04:58:54;;;;;;;0.65;0.08;;;9.70;99.90;;;;;;5050217;28;20089;-80
2024/01/25 05:01:20;;;;;;;0.30;0.10;;;9.70;99.90;;;;;;5050491;28;20090;-80
2024/01/25 05:03:46;;;;;;;0.25;0.17;;;9.70;99.90;;;;;;5049969;28;20028;-79
2024/01/25 05:06:11;;;;;;;0.88;0.10;;;9.70;99.90;;;;;;5049577;28;20055;-80
2024/01/25 05:08:38;;;;;;;0.10;0.10;;;9.60;99.90;;;;;;5050275;28;20029;-79
2024/01/25 05:11:03;;;;;;;0.00;0.00;;;9.50;99.90;;;;;;5049680;28;20029;-79
2024/01/25 05:13:29;;;;;;;0.00;0.00;;;9.50;99.90;;;;;;5050916;28;20116;-79
2024/01/25 05:15:55;;;;;;;0.05;0.05;;;9.50;99.90;;;;;;5032015;28;20029;-80
2024/01/25 05:18:21;;;;;;;0.10;0.10;;;9.50;99.90;;;;;;5050255;28;20024;-81
2024/01/25 05:20:46;;;;;;;0.32;0.20;;;9.40;99.90;;;;;;5050011;28;20045;-80
2024/01/25 05:23:12;;;;;;;0.10;0.00;;;9.40;99.90;;;;;;5031442;28;20123;-80
2024/01/25 05:25:38;;;;;;;0.10;0.10;;;9.60;99.90;;;;;;5050441;28;20408;-80
2024/01/25 05:28:04;;;;;;;0.80;0.05;;;9.60;99.90;;;;;;5049749;28;20406;-80
2024/01/25 05:30:29;;;;;;;0.63;0.13;;;9.50;99.90;;;;;;5049806;28;20056;-81
2024/01/25 05:32:55;;;;;;;2.72;0.20;;;9.50;99.90;;;;;;5049724;28;20056;-80
2024/01/25 05:35:21;;;;;;;0.20;0.20;;;9.50;99.90;;;;;;5032005;28;20056;-80
2024/01/25 05:37:47;;;;;;;1.10;0.20;;;9.40;99.90;;;;;;5049717;28;20017;-79
2024/01/25 05:40:13;;;;;;;0.52;0.30;;;9.40;99.90;;;;;;5049457;28;20068;-79
2024/01/25 05:42:40;;;;;;;0.30;0.30;;;9.50;99.90;;;;;;5031935;28;20029;-80
2024/01/25 05:45:06;;;;;;;1.77;0.73;;;9.50;99.90;;;;;;5049909;28;20020;-80
2024/01/25 05:47:32;;;;;;;2.05;0.70;;;9.50;99.90;;;;;;5049722;28;20025;-79
2024/01/25 05:49:58;;;;;;;1.60;0.90;;;9.60;99.90;;;;;;5049698;28;20040;-80
2024/01/25 05:52:24;;;;;;;6.57;1.27;;;9.70;99.90;;;;;;5050121;28;20028;-79
2024/01/25 05:54:50;;;;;;;8.82;1.20;;;9.80;99.90;;;;;;5032694;28;20083;-80
2024/01/25 05:57:17;;;;;;;7.57;1.17;;;9.90;99.90;;;;;;5049710;28;20057;-80
2024/01/25 05:59:43;;;;;;;8.07;1.60;;;10.20;99.90;;;;;;5050549;28;20053;-80
2024/01/25 06:02:09;;;;;;;9.80;1.35;;;10.00;99.90;;;;;;5031554;28;20056;-80
2024/01/25 06:04:35;;;;;;;10.07;1.50;;;10.20;99.90;;;;;;5050547;28;20454;-80
2024/01/25 06:07:01;;;;;;;8.13;1.45;;;10.40;99.90;;;;;;5049566;28;20056;-80
2024/01/25 06:09:27;;;;;;;6.25;1.25;;;10.40;99.90;;;;;;5051426;28;20032;-80
2024/01/25 06:11:53;;;;;;;11.13;1.15;;;10.50;99.90;;;;;;5073461;28;20025;-80
2024/01/25 06:14:18;;;;;;;8.45;1.00;;;10.40;99.90;;;;;;5073100;28;20816;-80
2024/01/25 06:16:44;;;;;;;4.97;0.95;;;10.70;99.90;;;;;;5073177;28;20035;-80
2024/01/25 06:19:10;;;;;;;3.33;0.90;;;10.80;99.90;;;;;;5073278;28;20063;-80
2024/01/25 06:21:37;;;;;;;2.92;0.50;;;10.80;99.90;;;;;;5073655;28;20105;-82
2024/01/25 06:24:06;;;;;;;2.80;0.73;;;10.80;99.90;;;;;;5073145;28;20021;-79
2024/01/25 06:26:32;;;;;;;2.53;0.90;;;10.90;99.90;;;;;;5073387;28;20028;-79
2024/01/25 06:28:58;;;;;;;2.97;1.05;;;10.80;99.90;;;;;;5072864;28;20028;-79
2024/01/25 06:31:25;;;;;;;6.85;0.98;;;11.00;99.90;;;;;;5056264;28;20112;-79
2024/01/25 06:33:52;;;;;;;1.38;0.57;;;11.00;99.90;;;;;;5073104;28;20045;-78
2024/01/25 06:36:21;;;;;;;2.40;0.70;;;11.10;99.90;;;;;;5072824;28;20161;-79
2024/01/25 06:38:47;;;;;;;3.17;0.88;;;11.00;99.90;;;;;;5072893;28;20403;-79
2024/01/25 06:41:13;;;;;;;4.13;0.95;;;11.00;99.90;;;;;;5072177;28;20032;-80
2024/01/25 06:43:40;;;;;;;4.63;1.00;;;11.10;99.90;;;;;;5073974;28;20047;-81
2024/01/25 06:46:06;;;;;;;4.47;0.73;;;11.10;99.90;;;;;;5073719;28;20133;-80
2024/01/25 06:48:32;;;;;;;5.45;0.95;;;11.10;99.90;;;;;;5055863;28;20111;-79
2024/01/25 06:50:58;;;;;;;5.05;0.80;;;11.10;99.90;;;;;;5074136;28;20028;-80
2024/01/25 06:53:24;;;;;;;7.90;0.73;;;11.10;99.90;;;;;;5054404;28;20330;-80
2024/01/25 06:55:50;;;;;;;1.92;0.70;;;11.10;99.90;;;;;;5072915;28;20389;-80
2024/01/25 06:58:15;;;;;;;4.15;0.88;;;11.10;99.90;;;;;;5071976;28;20059;-81
2024/01/25 07:00:42;;;;;;;3.75;0.65;;;11.00;99.90;;;;;;5073117;28;20040;-80
2024/01/25 07:03:08;;;;;;;3.65;0.90;;;11.00;99.90;;;;;;5055099;28;20050;-80
2024/01/25 07:05:35;;;;;;;1.77;0.60;;;11.10;99.90;;;;;;5072815;28;20125;-80
2024/01/25 07:08:01;;;;;;;6.57;0.73;;;11.00;99.90;;;;;;5071963;28;20031;-80
2024/01/25 07:10:27;;;;;;;3.80;0.77;;;11.00;99.90;;;;;;5072894;28;20040;-81
2024/01/25 07:12:53;;;;;;;3.45;0.60;;;11.00;99.90;;;;;;5073016;28;20036;-80
2024/01/25 07:15:20;;;;;;;2.58;0.63;;;11.00;99.90;;;;;;5054466;28;20447;-79
2024/01/25 07:17:46;;;;;;;5.53;1.33;;;11.10;99.90;;;;;;5072813;28;20501;-80
2024/01/25 07:20:12;;;;;;;1.58;0.68;;;11.00;99.90;;;;;;5071985;28;20036;-79
2024/01/25 07:22:38;;;;;;;2.95;0.70;;;11.00;99.90;;;;;;5071878;28;20435;-80
2024/01/25 07:25:04;;;;;;;0.93;0.50;;;11.10;99.90;;;;;;5072785;28;20040;-80
2024/01/25 07:27:30;;;;;;;2.60;0.73;;;11.00;99.90;;;;;;5071870;28;20084;-80
2024/01/25 07:29:56;;;;;;;2.35;0.50;;;11.00;99.90;;;;;;5072643;28;20179;-79
2024/01/25 07:32:24;;;;;;;3.80;0.60;;;11.10;99.90;;;;;;5071489;28;20102;-80
2024/01/25 07:34:50;;;;;;;4.43;0.75;;;11.10;99.90;;;;;;5072184;28;20115;-79
2024/01/25 07:37:16;;;;;;;2.13;0.68;;;11.20;99.90;;;;;;5071663;28;20032;-79
2024/01/25 07:39:41;;;;;;;3.40;0.55;;;11.20;99.90;;;;;;5071633;28;20064;-80
2024/01/25 07:42:07;;;;;;;5.22;0.80;;;11.20;99.90;;;;;;5071051;28;20064;-80
2024/01/25 07:44:33;;;;;;;5.68;0.40;;;11.20;99.90;;;;;;5071932;28;20461;-80
2024/01/25 07:46:59;;;;;;;2.65;0.60;;;11.10;99.90;;;;;;5072102;28;20036;-79
2024/01/25 07:49:25;;;;;;;6.63;0.93;;;11.20;99.90;;;;;;5071140;28;20206;-79
2024/01/25 07:51:51;;;;;;;2.35;0.55;;;11.20;99.90;;;;;;5053271;28;20170;-79
2024/01/25 07:54:17;;;;;;;2.40;0.93;;;11.20;99.90;;;;;;5070768;28;20159;-79
2024/01/25 07:56:43;;;;;;;1.77;0.65;;;11.20;99.90;;;;;;5053217;28;20515;-79
2024/01/25 07:59:08;;;;;;;2.67;0.63;;;11.10;99.90;;;;;;5070799;28;20059;-79
2024/01/25 08:01:34;;;;;;;2.10;0.57;;;11.20;99.90;;;;;;5053415;28;20036;-79
2024/01/25 08:04:00;;;;;;;2.47;0.60;;;11.10;99.90;;;;;;5052905;28;20033;-79
2024/01/25 08:06:27;;;;;;;2.30;0.60;;;11.10;99.90;;;;;;5070926;28;20113;-80
2024/01/25 08:08:52;;;;;;;3.40;0.50;;;11.10;99.90;;;;;;5070949;28;20029;-80
2024/01/25 08:11:20;;;;;;;0.65;0.47;;;11.30;99.90;;;;;;5070262;28;20488;-80
2024/01/25 08:13:47;;;;;;;1.45;0.52;;;11.30;99.90;;;;;;5071163;28;20040;-80
2024/01/25 08:16:13;;;;;;;3.55;0.73;;;11.30;99.90;;;;;;5070575;28;20127;-80
2024/01/25 08:18:40;;;;;;;3.25;0.70;;;11.30;99.90;;;;;;5070868;28;20029;-80
2024/01/25 08:21:05;;;;;;;2.60;0.68;;;11.30;99.90;;;;;;5070724;28;20042;-79
2024/01/25 08:23:31;;;;;;;2.28;0.70;;;11.40;99.90;;;;;;5070329;28;20024;-80
2024/01/25 08:25:57;;;;;;;3.50;0.70;;;11.40;99.90;;;;;;5070880;28;20060;-79
2024/01/25 08:28:23;;;;;;;3.40;0.77;;;11.30;99.90;;;;;;5070418;28;20335;-80
2024/01/25 08:30:49;;;;;;;2.72;0.70;;;11.40;99.90;;;;;;5070959;28;20028;-79
2024/01/25 08:33:15;;;;;;;4.10;0.80;;;11.30;99.90;;;;;;5069789;28;20447;-80
2024/01/25 08:35:40;;;;;;;2.25;1.00;;;11.30;99.90;;;;;;5052846;28;20028;-80
2024/01/25 08:38:07;;;;;;;3.47;0.82;;;11.40;99.90;;;;;;5070701;28;20488;-80
2024/01/25 08:40:33;;;;;;;4.82;1.10;;;11.40;99.90;;;;;;5070655;28;20036;-80
2024/01/25 08:42:59;;;;;;;3.45;1.08;;;11.40;99.90;;;;;;5072087;28;20468;-80
2024/01/25 08:45:25;;;;;;;3.03;1.05;;;11.50;99.90;;;;;;5072597;28;20029;-79
2024/01/25 08:47:52;;;;;;;5.80;1.10;;;11.50;99.90;;;;;;5072211;28;20115;-79
2024/01/25 08:50:18;;;;;;;3.15;1.30;;;11.40;99.90;;;;;;5069960;28;20420;-80
2024/01/25 08:52:44;;;;;;;3.05;0.90;;;11.50;99.90;;;;;;5070574;28;20021;-80
2024/01/25 08:55:10;;;;;;;2.70;0.90;;;11.50;99.90;;;;;;5070490;28;20111;-81
2024/01/25 08:57:36;;;;;;;2.15;0.65;;;11.50;99.90;;;;;;5070445;28;20110;-80
2024/01/25 09:00:08;;;;;;;3.05;0.73;;;11.50;99.90;;;;;;5070644;28;20078;-80
2024/01/25 09:02:34;;;;;;;2.33;1.10;;;11.70;99.90;;;;;;5071049;28;20025;-82
2024/01/25 09:05:00;;;;;;;2.70;1.10;;;11.70;99.90;;;;;;5070582;28;20029;-81
2024/01/25 09:07:25;;;;;;;2.35;0.80;;;11.60;99.90;;;;;;5070295;28;20032;-79
2024/01/25 09:09:51;;;;;;;1.40;0.45;;;11.60;99.90;;;;;;5070277;28;20046;-80
2024/01/25 09:12:17;;;;;;;3.80;1.23;;;11.70;99.90;;;;;;5069950;28;20454;-79
2024/01/25 09:14:43;;;;;;;5.07;1.20;;;11.70;99.90;;;;;;5070654;28;20024;-80
2024/01/25 09:17:09;;;;;;;2.33;0.60;;;11.70;99.90;;;;;;5070692;28;20025;-82
2024/01/25 09:19:35;;;;;;;4.68;0.65;;;11.80;99.90;;;;;;5070510;28;20059;-82
2024/01/25 09:22:04;;;;;;;2.85;1.00;;;11.90;99.90;;;;;;5070234;28;20063;-80
2024/01/25 09:24:35;;;;;;;4.25;1.20;;;11.80;99.90;;;;;;5070197;28;20183;-80
2024/01/25 09:27:02;;;;;;;2.20;1.20;;;11.90;99.90;;;;;;5070912;28;20031;-80
2024/01/25 09:29:28;;;;;;;2.63;0.90;;;11.90;99.90;;;;;;5051917;28;20029;-80
2024/01/25 09:31:54;;;;;;;3.28;0.63;;;11.90;99.90;;;;;;5070511;28;20108;-79
2024/01/25 09:34:21;;;;;;;3.92;0.60;;;11.90;99.90;;;;;;5070270;28;20413;-80
2024/01/25 09:36:47;;;;;;;4.10;1.00;;;12.00;99.90;;;;;;5070755;28;20048;-80
2024/01/25 09:39:14;;;;;;;3.13;0.80;;;12.00;99.90;;;;;;5051684;28;20028;-82
2024/01/25 09:41:40;;;;;;;2.28;0.68;;;12.00;99.90;;;;;;5052134;28;20075;-79
2024/01/25 09:44:09;;;;;;;6.78;1.10;;;12.00;99.90;;;;;;5070674;28;20111;-79
2024/01/25 09:46:35;;;;;;;4.65;0.80;;;12.00;99.90;;;;;;5072967;28;20469;-80
2024/01/25 09:49:02;;;;;;;2.22;0.80;;;12.00;99.90;;;;;;5073731;28;20071;-80
2024/01/25 09:51:37;;;;;;;2.25;0.70;;;12.00;99.90;;;;;;5072935;28;20020;-81
2024/01/25 09:54:07;;;;;;;3.33;0.75;;;12.00;99.90;;;;;;5055758;28;20025;-80
2024/01/25 09:56:33;;;;;;;3.50;1.25;;;12.10;99.90;;;;;;5073546;28;20021;-80
2024/01/25 09:59:00;;;;;;;4.75;1.27;;;12.10;99.90;;;;;;5055530;28;20062;-80
2024/01/25 10:01:26;;;;;;;5.07;1.08;;;12.00;99.90;;;;;;5073149;28;20043;-80
2024/01/25 10:03:52;;;;;;;3.88;0.93;;;12.10;99.90;;;;;;5055846;28;20396;-79
2024/01/25 10:06:18;;;;;;;2.80;0.60;;;12.00;99.90;;;;;;5054485;28;20050;-80
2024/01/25 10:08:45;;;;;;;4.85;0.90;;;12.10;99.90;;;;;;5055670;28;20051;-80
2024/01/25 10:11:14;;;;;;;6.00;1.00;;;12.10;99.90;;;;;;5055417;28;20035;-79
2024/01/25 10:13:50;;;;;;;7.20;2.10;;;12.20;99.90;;;;;;5073722;28;20025;-79
2024/01/25 10:16:18;;;;;;;6.28;1.33;;;12.20;99.90;;;;;;5073144;28;20024;-80
2024/01/25 10:18:46;;;;;;;4.85;1.13;;;12.30;99.90;;;;;;5073481;28;20368;-80
2024/01/25 10:21:13;;;;;;;4.68;1.40;;;12.20;99.90;;;;;;5072634;28;20116;-81
2024/01/25 10:23:40;;;;;;;3.65;1.15;;;12.20;99.90;;;;;;5073760;28;20039;-78
2024/01/25 10:26:08;;;;;;;7.10;1.38;;;12.40;99.90;;;;;;5073162;28;20126;-78
2024/01/25 10:28:34;;;;;;;3.45;1.23;;;12.40;99.90;;;;;;5055447;28;20243;-77
2024/01/25 10:31:07;;;;;;;2.53;1.13;;;12.40;99.90;;;;;;5072499;28;20385;-81
2024/01/25 10:33:34;;;;;;;5.78;1.40;;;12.40;99.90;;;;;;5072647;28;20029;-79
2024/01/25 10:36:04;;;;;;;6.68;1.17;;;12.40;99.90;;;;;;5072720;28;20489;-80
2024/01/25 10:38:36;;;;;;;7.82;1.20;;;12.60;99.90;;;;;;5054099;28;20040;-80
2024/01/25 10:41:04;;;;;;;4.82;1.10;;;12.60;99.90;;;;;;5073122;28;20032;-80
2024/01/25 10:43:30;;;;;;;6.22;1.10;;;12.60;99.90;;;;;;5072312;28;20177;-80
2024/01/25 10:45:58;;;;;;;3.28;0.90;;;12.70;99.90;;;;;;5055390;28;20142;-80
2024/01/25 10:48:34;;;;;;;6.38;1.38;;;12.70;99.90;;;;;;5054015;28;20485;-80
2024/01/25 10:51:02;;;;;;;3.42;1.10;;;12.70;99.90;;;;;;5073302;28;20141;-81
2024/01/25 10:53:34;;;;;;;1.52;0.75;;;12.70;99.90;;;;;;5072643;28;20054;-80
2024/01/25 10:56:01;;;;;;;2.50;0.80;;;12.70;99.90;;;;;;5072559;28;20419;-80
2024/01/25 10:58:35;;;;;;;6.20;1.17;;;12.80;99.90;;;;;;5072474;28;20723;-80
2024/01/25 11:01:03;;;;;;;3.80;0.82;;;12.80;99.90;;;;;;5054826;28;20029;-80
2024/01/25 11:03:34;;;;;;;4.60;0.85;;;12.80;99.90;;;;;;5054480;28;20477;-80
2024/01/25 11:06:10;;;;;;;1.75;0.65;;;12.80;99.90;;;;;;5072647;28;20032;-80
2024/01/25 11:08:40;;;;;;;2.67;1.05;;;12.80;99.90;;;;;;5054320;28;20054;-80
2024/01/25 11:11:10;;;;;;;4.03;0.85;;;12.90;99.90;;;;;;5054395;28;20036;-80
2024/01/25 11:13:39;;;;;;;4.80;1.00;;;12.90;99.90;;;;;;5072173;28;20684;-81
2024/01/25 11:16:27;;;;;;;3.10;0.80;;;12.80;99.90;;;;;;5073145;28;20020;-80
2024/01/25 11:19:07;;;;;;;1.20;0.52;;;12.90;99.90;;;;;;5073148;28;20024;-80
2024/01/25 11:21:43;;;;;;;2.80;0.90;;;13.00;99.90;;;;;;5053986;28;20062;-81
2024/01/25 11:24:21;;;;;;;2.63;0.80;;;13.10;99.90;;;;;;5073268;28;20025;-80
2024/01/25 11:26:47;;;;;;;2.58;0.68;;;13.20;99.90;;;;;;5054973;28;20073;-80
2024/01/25 11:29:17;;;;;;;2.35;0.88;;;13.20;99.90;;;;;;5054709;28;20025;-79
2024/01/25 11:31:46;;;;;;;3.40;0.80;;;13.20;99.90;;;;;;5072701;28;20033;-80
2024/01/25 11:34:15;;;;;;;2.67;0.80;;;13.30;99.90;;;;;;5072483;28;20090;-79
2024/01/25 11:36:41;;;;;;;2.55;1.00;;;13.40;99.90;;;;;;5054190;28;20025;-80
2024/01/25 11:39:09;;;;;;;2.17;0.82;;;13.50;99.90;;;;;;5072687;28;20032;-81
2024/01/25 11:41:35;;;;;;;2.67;0.85;;;13.50;99.90;;;;;;5071967;28;20036;-81
2024/01/25 11:44:03;;;;;;;3.33;0.80;;;13.50;99.90;;;;;;5073048;28;20101;-80
2024/01/25 11:46:29;;;;;;;2.25;0.82;;;13.60;99.90;;;;;;5055172;28;20040;-81
2024/01/25 11:48:55;;;;;;;1.00;0.60;;;13.50;99.90;;;;;;5072632;28;20032;-80
2024/01/25 11:51:21;;;;;;;1.63;0.88;;;13.50;99.90;;;;;;5071460;28;20103;-82
2024/01/25 11:53:46;;;;;;;4.78;1.02;;;13.50;99.90;;;;;;5054063;28;20032;-80
2024/01/25 11:56:19;;;;;;;2.22;0.77;;;13.50;99.90;;;;;;5046517;28;20037;-80
2024/01/25 11:58:45;;;;;;;2.58;0.80;;;13.50;99.90;;;;;;5034127;28;20041;-80
2024/01/25 12:01:12;;;;;;;0.95;0.60;;;13.50;99.90;;;;;;5034610;28;20040;-81
2024/01/25 12:03:40;;;;;;;1.77;0.60;;;13.50;99.90;;;;;;5051622;28;20776;-81
2024/01/25 12:06:09;;;;;;;3.45;0.68;;;13.50;99.90;;;;;;5053115;28;20041;-81
2024/01/25 12:08:35;;;;;;;2.25;0.60;;;13.50;99.90;;;;;;5032654;28;20474;-80
2024/01/25 12:11:08;;;;;;;4.25;0.68;;;13.50;99.90;;;;;;5052908;28;20029;-80
2024/01/25 12:13:40;;;;;;;2.05;0.80;;;13.50;99.90;;;;;;5033609;28;20021;-79
2024/01/25 12:16:07;;;;;;;1.55;0.57;;;13.50;99.90;;;;;;5054469;28;20044;-81
2024/01/25 12:18:34;;;;;;;2.33;0.90;;;13.50;99.90;;;;;;5051442;28;20386;-81
2024/01/25 12:21:01;;;;;;;4.68;1.02;;;13.50;99.90;;;;;;5038478;28;20043;-80
2024/01/25 12:23:34;;;;;;;2.88;0.80;;;13.60;99.90;;;;;;5051915;28;20053;-81
2024/01/25 12:26:01;;;;;;;1.45;0.68;;;13.50;99.90;;;;;;5034418;28;20086;-81
2024/01/25 12:28:28;;;;;;;2.28;0.70;;;13.50;99.90;;;;;;5033096;28;20047;-79
2024/01/25 12:30:54;;;;;;;3.67;0.90;;;13.60;99.90;;;;;;5051566;28;20021;-80
2024/01/25 12:33:20;;;;;;;1.30;0.65;;;13.60;99.90;;;;;;5051002;28;20025;-80
2024/01/25 12:35:46;;;;;;;4.15;0.73;;;13.60;99.90;;;;;;5032972;28;20051;-80
2024/01/25 12:38:12;;;;;;;3.90;0.70;;;13.60;99.90;;;;;;5050749;28;20466;-81
2024/01/25 12:40:37;;;;;;;2.17;0.88;;;13.60;99.90;;;;;;5033971;28;20115;-79
2024/01/25 12:43:03;;;;;;;1.95;0.70;;;13.50;99.90;;;;;;5051416;28;20033;-81
2024/01/25 12:45:29;;;;;;;2.75;0.70;;;13.60;99.90;;;;;;5052252;28;20025;-78